createdAt,value
2023-04-11T00:00:53.217Z,6.59
2023-04-11T00:01:56.157Z,6.56
2023-04-11T00:03:00.326Z,6.54
2023-04-11T00:04:04.833Z,6.50
2023-04-11T00:05:08.677Z,6.51
2023-04-11T00:06:11.529Z,6.48
2023-04-11T00:07:14.619Z,6.47
2023-04-11T00:08:17.590Z,6.45
2023-04-11T00:09:20.606Z,6.43
2023-04-11T00:10:23.486Z,6.41
2023-04-11T00:11:26.307Z,6.39
2023-04-11T00:12:29.189Z,6.39
2023-04-11T00:13:31.984Z,6.39
2023-04-11T00:14:34.920Z,6.40
2023-04-11T00:15:39.463Z,6.40
2023-04-11T00:16:43.068Z,6.40
2023-04-11T00:17:45.970Z,6.39
2023-04-11T00:18:48.881Z,6.39
2023-04-11T00:19:53.475Z,6.38
2023-04-11T00:20:56.311Z,6.41
2023-04-11T00:22:00.604Z,6.41
2023-04-11T00:23:03.887Z,6.39
2023-04-11T00:24:08.309Z,6.38
2023-04-11T00:25:11.284Z,6.36
2023-04-11T00:26:14.225Z,6.38
2023-04-11T00:27:17.290Z,6.34
2023-04-11T00:28:20.208Z,6.33
2023-04-11T00:29:23.125Z,6.31
2023-04-11T00:30:26.088Z,6.32
2023-04-11T00:31:29.094Z,6.31
2023-04-11T00:32:32.927Z,6.26
2023-04-11T00:33:35.862Z,6.24
2023-04-11T00:34:39.524Z,6.24
2023-04-11T00:35:42.608Z,6.22
2023-04-11T00:36:46.102Z,6.22
2023-04-11T00:37:54.269Z,6.25
2023-04-11T00:38:58.646Z,6.22
2023-04-11T00:40:02.352Z,6.22
2023-04-11T00:41:05.386Z,6.23
2023-04-11T00:42:09.039Z,6.19
2023-04-11T00:43:12.230Z,6.20
2023-04-11T00:44:15.561Z,6.16
2023-04-11T00:45:18.680Z,6.15
2023-04-11T00:46:22.187Z,6.18
2023-04-11T00:47:25.872Z,6.15
2023-04-11T00:48:28.938Z,6.11
2023-04-11T00:49:32.128Z,6.14
2023-04-11T00:50:39.938Z,6.11
2023-04-11T00:51:42.971Z,6.14
2023-04-11T00:52:47.263Z,6.11
2023-04-11T00:53:50.161Z,6.11
2023-04-11T00:54:53.125Z,6.08
2023-04-11T00:55:56.005Z,6.08
2023-04-11T00:57:04.239Z,6.06
2023-04-11T00:58:08.289Z,6.08
2023-04-11T00:59:11.815Z,6.07
2023-04-11T01:00:15.370Z,6.03
2023-04-11T01:01:20.090Z,6.06
2023-04-11T01:02:25.050Z,6.06
2023-04-11T01:03:30.307Z,6.05
2023-04-11T01:04:33.516Z,6.03
2023-04-11T01:05:37.211Z,6.04
2023-04-11T01:06:41.775Z,6.00
2023-04-11T01:07:48.924Z,5.99
2023-04-11T01:08:52.314Z,6.02
2023-04-11T01:09:55.557Z,5.99
2023-04-11T01:10:58.563Z,6.00
2023-04-11T01:12:03.367Z,6.01
2023-04-11T01:13:06.847Z,6.05
2023-04-11T01:14:09.746Z,6.07
2023-04-11T01:15:12.748Z,6.02
2023-04-11T01:16:16.126Z,6.06
2023-04-11T01:17:21.857Z,6.04
2023-04-11T01:18:26.813Z,6.06
2023-04-11T01:19:30.998Z,6.05
2023-04-11T01:20:34.633Z,6.03
2023-04-11T01:21:37.956Z,6.02
2023-04-11T01:22:42.319Z,6.01
2023-04-11T01:23:48.959Z,6.00
2023-04-11T01:24:52.135Z,6.00
2023-04-11T01:25:55.537Z,5.96
2023-04-11T01:26:58.616Z,5.96
2023-04-11T01:28:01.832Z,6.00
2023-04-11T01:29:04.959Z,6.01
2023-04-11T01:30:08.811Z,5.99
2023-04-11T01:31:12.151Z,6.00
2023-04-11T01:32:15.177Z,5.97
2023-04-11T01:33:18.300Z,5.92
2023-04-11T01:34:22.605Z,5.91
2023-04-11T01:35:25.620Z,5.89
2023-04-11T01:36:30.160Z,5.89
2023-04-11T01:37:33.436Z,5.88
2023-04-11T01:38:36.491Z,5.86
2023-04-11T01:39:39.652Z,5.89
2023-04-11T01:40:45.042Z,5.86
2023-04-11T01:41:49.168Z,5.87
2023-04-11T01:42:52.869Z,5.83
2023-04-11T01:43:57.144Z,5.82
2023-04-11T01:45:01.646Z,5.82
2023-04-11T01:46:04.692Z,5.84
2023-04-11T01:47:07.695Z,5.83
2023-04-11T01:48:10.830Z,5.80
2023-04-11T01:49:15.692Z,5.83
2023-04-11T01:50:18.738Z,5.82
2023-04-11T01:51:22.304Z,5.79
2023-04-11T01:52:25.340Z,5.79
2023-04-11T01:53:28.536Z,5.78
2023-04-11T01:54:31.452Z,5.79
2023-04-11T01:55:34.322Z,5.79
2023-04-11T01:56:37.168Z,5.80
2023-04-11T01:57:40.125Z,5.80
2023-04-11T01:58:43.072Z,5.77
2023-04-11T01:59:45.955Z,5.77
2023-04-11T02:00:48.870Z,5.76
2023-04-11T02:01:51.746Z,5.76
2023-04-11T02:02:54.870Z,5.73
2023-04-11T02:03:58.165Z,5.73
2023-04-11T02:05:01.205Z,5.76
2023-04-11T02:06:04.430Z,5.72
2023-04-11T02:07:07.406Z,5.72
2023-04-11T02:08:11.307Z,5.71
2023-04-11T02:09:14.263Z,5.71
2023-04-11T02:10:17.246Z,5.70
2023-04-11T02:11:20.183Z,5.70
2023-04-11T02:12:25.293Z,5.69
2023-04-11T02:13:28.574Z,5.72
2023-04-11T02:14:45.669Z,5.69
2023-04-11T02:15:49.114Z,5.71
2023-04-11T02:16:56.470Z,5.67
2023-04-11T02:18:00.403Z,5.64
2023-04-11T02:19:03.850Z,5.60
2023-04-11T02:20:07.831Z,5.62
2023-04-11T02:21:12.490Z,5.63
2023-04-11T02:22:16.281Z,5.61
2023-04-11T02:23:19.167Z,5.59
2023-04-11T02:24:22.862Z,5.55
2023-04-11T02:25:25.908Z,5.53
2023-04-11T02:26:29.135Z,5.54
2023-04-11T02:27:33.212Z,5.50
2023-04-11T02:28:36.787Z,5.49
2023-04-11T02:29:39.678Z,5.48
2023-04-11T02:30:42.726Z,5.51
2023-04-11T02:31:49.914Z,5.50
2023-04-11T02:32:53.673Z,5.51
2023-04-11T02:33:56.638Z,5.47
2023-04-11T02:34:59.488Z,5.49
2023-04-11T02:36:02.440Z,5.49
2023-04-11T02:37:05.743Z,5.48
2023-04-11T02:38:10.278Z,5.48
2023-04-11T02:39:14.003Z,5.46
2023-04-11T02:40:16.989Z,5.48
2023-04-11T02:41:20.028Z,5.46
2023-04-11T02:42:22.925Z,5.42
2023-04-11T02:43:25.883Z,5.40
2023-04-11T02:44:29.598Z,5.38
2023-04-11T02:45:33.281Z,5.34
2023-04-11T02:46:36.912Z,5.32
2023-04-11T02:47:41.914Z,5.33
2023-04-11T02:48:44.907Z,5.34
2023-04-11T02:49:48.292Z,5.33
2023-04-11T02:50:52.731Z,5.34
2023-04-11T02:51:55.695Z,5.33
2023-04-11T02:52:58.641Z,5.33
2023-04-11T02:54:03.241Z,5.33
2023-04-11T02:55:06.597Z,5.33
2023-04-11T02:56:13.385Z,5.33
2023-04-11T02:57:16.227Z,5.34
2023-04-11T02:58:25.943Z,5.36
2023-04-11T02:59:30.658Z,5.41
2023-04-11T03:00:34.835Z,5.46
2023-04-11T03:01:41.175Z,5.48
2023-04-11T03:02:44.146Z,5.46
2023-04-11T03:03:48.677Z,5.46
2023-04-11T03:04:51.777Z,5.46
2023-04-11T03:05:54.770Z,5.47
2023-04-11T03:06:58.913Z,5.47
2023-04-11T03:08:01.929Z,5.50
2023-04-11T03:09:07.585Z,5.50
2023-04-11T03:10:10.939Z,5.50
2023-04-11T03:11:13.797Z,5.51
2023-04-11T03:12:20.117Z,5.50
2023-04-11T03:13:28.976Z,5.49
2023-04-11T03:14:32.058Z,5.50
2023-04-11T03:15:35.048Z,5.47
2023-04-11T03:16:40.402Z,5.50
2023-04-11T03:17:43.641Z,5.48
2023-04-11T03:18:48.756Z,5.51
2023-04-11T03:19:51.682Z,5.49
2023-04-11T03:20:56.114Z,5.51
2023-04-11T03:22:01.614Z,5.47
2023-04-11T03:23:04.564Z,5.46
2023-04-11T03:24:07.868Z,5.47
2023-04-11T03:25:10.770Z,5.43
2023-04-11T03:26:14.444Z,5.43
2023-04-11T03:27:18.428Z,5.42
2023-04-11T03:28:21.674Z,5.46
2023-04-11T03:29:24.828Z,5.46
2023-04-11T03:30:41.199Z,5.44
2023-04-11T03:31:45.041Z,5.47
2023-04-11T03:32:50.201Z,5.45
2023-04-11T03:33:53.181Z,5.47
2023-04-11T03:35:00.587Z,5.44
2023-04-11T03:36:04.496Z,5.45
2023-04-11T03:37:07.620Z,5.47
2023-04-11T03:38:11.345Z,5.43
2023-04-11T03:39:14.359Z,5.45
2023-04-11T03:40:18.673Z,5.39
2023-04-11T03:41:24.892Z,5.39
2023-04-11T03:42:28.026Z,5.37
2023-04-11T03:43:33.644Z,5.34
2023-04-11T03:44:36.918Z,5.34
2023-04-11T03:45:40.132Z,5.35
2023-04-11T03:46:48.551Z,5.35
2023-04-11T03:47:52.200Z,5.34
2023-04-11T03:48:57.133Z,5.36
2023-04-11T03:50:01.380Z,5.35
2023-04-11T03:51:04.738Z,5.32
2023-04-11T03:52:17.508Z,5.28
2023-04-11T03:53:22.244Z,5.24
2023-04-11T03:54:26.881Z,5.22
2023-04-11T03:55:29.761Z,5.17
2023-04-11T03:56:32.905Z,5.18
2023-04-11T03:57:36.337Z,5.15
2023-04-11T03:58:39.527Z,5.18
2023-04-11T03:59:42.418Z,5.14
2023-04-11T04:00:47.938Z,5.13
2023-04-11T04:01:50.858Z,5.12
2023-04-11T04:02:54.184Z,5.11
2023-04-11T04:03:57.597Z,5.12
2023-04-11T04:05:01.583Z,5.10
2023-04-11T04:06:06.676Z,5.08
2023-04-11T04:07:10.154Z,5.08
2023-04-11T04:08:16.403Z,5.10
2023-04-11T04:09:24.328Z,5.11
2023-04-11T04:10:30.248Z,5.10
2023-04-11T04:11:33.292Z,5.13
2023-04-11T04:12:36.248Z,5.13
2023-04-11T04:13:54.557Z,5.14
2023-04-11T04:14:57.837Z,5.12
2023-04-11T04:16:03.511Z,5.15
2023-04-11T04:17:07.574Z,5.18
2023-04-11T04:18:10.512Z,5.20
2023-04-11T04:19:23.718Z,5.24
2023-04-11T04:20:26.650Z,5.23
2023-04-11T04:21:32.625Z,5.27
2023-04-11T04:22:35.830Z,5.27
2023-04-11T04:23:39.515Z,5.28
2023-04-11T04:24:58.294Z,5.33
2023-04-11T04:26:06.964Z,5.34
2023-04-11T04:27:11.519Z,5.36
2023-04-11T04:28:22.530Z,5.44
2023-04-11T04:29:34.098Z,5.47
2023-04-11T04:30:38.344Z,5.51
2023-04-11T04:31:50.662Z,5.55
2023-04-11T04:32:59.204Z,5.58
2023-04-11T04:34:08.880Z,5.61
2023-04-11T04:35:14.308Z,5.64
2023-04-11T04:36:19.950Z,5.61
2023-04-11T04:37:25.316Z,5.61
2023-04-11T04:38:48.628Z,5.59
2023-04-11T04:39:56.889Z,5.66
2023-04-11T04:41:02.198Z,5.69
2023-04-11T04:42:05.361Z,5.71
2023-04-11T04:43:18.718Z,5.71
2023-04-11T04:44:30.070Z,5.75
2023-04-11T04:45:37.610Z,5.76
2023-04-11T04:46:41.185Z,5.76
2023-04-11T04:47:44.197Z,5.80
2023-04-11T04:48:47.101Z,5.77
2023-04-11T04:49:56.027Z,5.80
2023-04-11T04:50:58.916Z,5.83
2023-04-11T04:52:01.844Z,5.85
2023-04-11T04:53:04.753Z,5.84
2023-04-11T04:54:07.650Z,5.86
2023-04-11T04:55:10.860Z,5.92
2023-04-11T04:56:14.557Z,5.92
2023-04-11T04:57:21.275Z,5.97
2023-04-11T04:58:24.162Z,6.00
2023-04-11T04:59:28.111Z,6.03
2023-04-11T05:00:36.707Z,6.12
2023-04-11T05:01:40.663Z,6.15
2023-04-11T05:02:44.578Z,6.21
2023-04-11T05:03:50.972Z,6.22
2023-04-11T05:05:04.164Z,6.31
2023-04-11T05:06:07.746Z,6.35
2023-04-11T05:07:13.901Z,6.36
2023-04-11T05:08:19.817Z,6.43
2023-04-11T05:09:23.591Z,6.43
2023-04-11T05:10:27.709Z,6.50
2023-04-11T05:11:30.919Z,6.52
2023-04-11T05:12:33.990Z,6.58
2023-04-11T05:13:40.585Z,6.60
2023-04-11T05:14:43.698Z,6.64
2023-04-11T05:15:50.090Z,6.70
2023-04-11T05:16:53.761Z,6.71
2023-04-11T05:17:57.680Z,6.75
2023-04-11T05:19:01.458Z,6.81
2023-04-11T05:20:09.174Z,6.85
2023-04-11T05:21:13.660Z,6.91
2023-04-11T05:22:17.633Z,6.94
2023-04-11T05:23:23.683Z,6.99
2023-04-11T05:24:27.128Z,7.01
2023-04-11T05:25:33.925Z,7.05
2023-04-11T05:26:37.306Z,7.11
2023-04-11T05:27:40.564Z,7.15
2023-04-11T05:28:44.305Z,7.21
2023-04-11T05:29:50.129Z,7.32
2023-04-11T05:30:53.422Z,7.36
2023-04-11T05:31:56.634Z,7.43
2023-04-11T05:32:59.587Z,7.51
2023-04-11T05:34:02.478Z,7.62
2023-04-11T05:35:06.211Z,7.64
2023-04-11T05:36:15.725Z,7.72
2023-04-11T05:37:18.959Z,7.78
2023-04-11T05:38:21.965Z,7.82
2023-04-11T05:39:25.026Z,7.92
2023-04-11T05:40:28.155Z,7.98
2023-04-11T05:41:31.057Z,8.01
2023-04-11T05:42:34.043Z,8.07
2023-04-11T05:43:38.018Z,8.16
2023-04-11T05:44:41.300Z,8.30
2023-04-11T05:45:48.184Z,8.41
2023-04-11T05:46:52.160Z,8.50
2023-04-11T05:47:55.154Z,8.53
2023-04-11T05:48:58.783Z,8.60
2023-04-11T05:50:01.922Z,8.66
2023-04-11T05:51:05.698Z,8.73
2023-04-11T05:52:10.617Z,8.85
2023-04-11T05:53:13.521Z,8.96
2023-04-11T05:54:32.762Z,9.10
2023-04-11T05:55:37.064Z,9.26
2023-04-11T05:56:42.458Z,9.46
2023-04-11T05:57:45.684Z,9.58
2023-04-11T05:58:48.564Z,9.65
2023-04-11T05:59:53.172Z,9.68
2023-04-11T06:00:59.473Z,9.75
2023-04-11T06:02:02.530Z,9.84
2023-04-11T06:03:06.140Z,9.93
2023-04-11T06:04:09.304Z,10.05
2023-04-11T06:05:12.471Z,10.22
2023-04-11T06:06:15.881Z,10.42
2023-04-11T06:07:18.886Z,10.58
2023-04-11T06:08:22.246Z,10.71
2023-04-11T06:09:28.411Z,10.88
2023-04-11T06:10:31.514Z,11.11
2023-04-11T06:11:34.508Z,11.28
2023-04-11T06:12:37.357Z,11.43
2023-04-11T06:13:40.195Z,11.52
2023-04-11T06:14:43.376Z,11.62
2023-04-11T06:15:46.455Z,11.73
2023-04-11T06:16:49.426Z,11.78
2023-04-11T06:17:53.001Z,11.89
2023-04-11T06:18:55.914Z,12.02
2023-04-11T06:19:58.866Z,12.15
2023-04-11T06:21:01.767Z,12.33
2023-04-11T06:22:04.651Z,12.54
2023-04-11T06:23:07.574Z,12.72
2023-04-11T06:24:11.641Z,12.85
2023-04-11T06:25:14.564Z,12.99
2023-04-11T06:26:17.480Z,13.10
2023-04-11T06:27:20.350Z,13.19
2023-04-11T06:28:23.251Z,13.30
2023-04-11T06:29:26.128Z,13.31
2023-04-11T06:30:29.044Z,13.36
2023-04-11T06:31:32.751Z,13.41
2023-04-11T06:32:35.702Z,13.49
2023-04-11T06:33:38.571Z,13.56
2023-04-11T06:34:42.265Z,13.60
2023-04-11T06:35:45.114Z,13.62
2023-04-11T06:36:49.889Z,13.70
2023-04-11T06:37:53.133Z,13.83
2023-04-11T06:38:56.158Z,14.00
2023-04-11T06:40:00.503Z,14.15
2023-04-11T06:41:03.428Z,14.27
2023-04-11T06:42:06.466Z,14.35
2023-04-11T06:43:10.309Z,14.46
2023-04-11T06:44:13.344Z,14.56
2023-04-11T06:45:16.352Z,14.74
2023-04-11T06:46:19.280Z,14.98
2023-04-11T06:47:22.572Z,15.06
2023-04-11T06:48:25.487Z,15.03
2023-04-11T06:49:28.572Z,14.99
2023-04-11T06:50:31.497Z,15.02
2023-04-11T06:51:35.318Z,15.07
2023-04-11T06:52:38.365Z,15.10
2023-04-11T06:53:41.218Z,15.11
2023-04-11T06:54:44.122Z,15.14
2023-04-11T06:55:50.304Z,15.24
2023-04-11T06:56:53.305Z,15.37
2023-04-11T06:57:56.186Z,15.46
2023-04-11T06:58:59.205Z,15.54
2023-04-11T07:00:02.314Z,15.61
2023-04-11T07:01:06.106Z,15.62
2023-04-11T07:02:09.199Z,15.64
2023-04-11T07:03:12.542Z,15.66
2023-04-11T07:04:16.456Z,15.58
2023-04-11T07:05:19.458Z,15.49
2023-04-11T07:06:22.986Z,15.50
2023-04-11T07:07:26.128Z,15.63
2023-04-11T07:08:29.185Z,15.68
2023-04-11T07:09:32.090Z,15.75
2023-04-11T07:10:35.058Z,15.79
2023-04-11T07:11:38.747Z,15.85
2023-04-11T07:12:41.592Z,15.95
2023-04-11T07:13:44.515Z,16.08
2023-04-11T07:14:47.453Z,16.13
2023-04-11T07:15:50.371Z,16.11
2023-04-11T07:16:53.246Z,16.18
2023-04-11T07:17:56.169Z,16.34
2023-04-11T07:19:00.112Z,16.45
2023-04-11T07:20:07.102Z,16.53
2023-04-11T07:21:14.445Z,16.49
2023-04-11T07:22:17.375Z,16.42
2023-04-11T07:23:22.370Z,16.44
2023-04-11T07:24:27.271Z,16.51
2023-04-11T07:25:33.917Z,16.52
2023-04-11T07:26:38.988Z,16.47
2023-04-11T07:27:43.919Z,16.42
2023-04-11T07:28:47.573Z,16.36
2023-04-11T07:29:50.818Z,16.37
2023-04-11T07:30:53.678Z,16.39
2023-04-11T07:31:56.684Z,16.41
2023-04-11T07:32:59.661Z,16.37
2023-04-11T07:34:02.627Z,16.37
2023-04-11T07:35:05.926Z,16.36
2023-04-11T07:36:09.544Z,16.38
2023-04-11T07:37:12.612Z,16.40
2023-04-11T07:38:29.674Z,16.43
2023-04-11T07:39:33.492Z,16.46
2023-04-11T07:40:36.389Z,16.48
2023-04-11T07:41:39.521Z,16.49
2023-04-11T07:42:42.830Z,16.52
2023-04-11T07:43:45.720Z,16.55
2023-04-11T07:44:48.690Z,16.53
2023-04-11T07:45:52.525Z,16.54
2023-04-11T07:46:55.418Z,16.52
2023-04-11T07:47:58.276Z,16.48
2023-04-11T07:49:01.337Z,16.44
2023-04-11T07:50:04.839Z,16.40
2023-04-11T07:51:07.896Z,16.37
2023-04-11T07:52:12.425Z,16.37
2023-04-11T07:53:16.969Z,16.36
2023-04-11T07:54:19.899Z,16.39
2023-04-11T07:55:22.755Z,16.37
2023-04-11T07:56:25.685Z,16.31
2023-04-11T07:57:30.287Z,16.29
2023-04-11T07:58:33.181Z,16.21
2023-04-11T07:59:36.127Z,16.17
2023-04-11T08:00:38.990Z,16.17
2023-04-11T08:01:41.892Z,16.19
2023-04-11T08:02:44.960Z,16.28
2023-04-11T08:03:48.245Z,16.41
2023-04-11T08:04:51.335Z,16.55
2023-04-11T08:05:54.428Z,16.61
2023-04-11T08:06:58.258Z,16.68
2023-04-11T08:08:02.454Z,16.78
2023-04-11T08:09:05.766Z,16.81
2023-04-11T08:10:09.036Z,16.83
2023-04-11T08:11:11.922Z,16.81
2023-04-11T08:12:14.769Z,16.81
2023-04-11T08:13:17.680Z,16.79
2023-04-11T08:14:20.698Z,16.76
2023-04-11T08:15:23.573Z,16.66
2023-04-11T08:16:26.653Z,16.60
2023-04-11T08:17:29.663Z,16.54
2023-04-11T08:18:33.043Z,16.50
2023-04-11T08:19:36.954Z,16.45
2023-04-11T08:20:41.029Z,16.42
2023-04-11T08:21:44.052Z,16.39
2023-04-11T08:22:47.056Z,16.41
2023-04-11T08:23:50.959Z,16.49
2023-04-11T08:24:53.816Z,16.57
2023-04-11T08:25:56.950Z,16.63
2023-04-11T08:27:00.427Z,16.63
2023-04-11T08:28:05.155Z,16.58
2023-04-11T08:29:11.403Z,16.53
2023-04-11T08:30:15.169Z,16.44
2023-04-11T08:31:18.389Z,16.36
2023-04-11T08:32:21.607Z,16.25
2023-04-11T08:33:28.460Z,16.17
2023-04-11T08:34:34.297Z,16.11
2023-04-11T08:35:37.936Z,16.10
2023-04-11T08:36:41.776Z,16.08
2023-04-11T08:37:44.653Z,16.05
2023-04-11T08:38:47.721Z,16.10
2023-04-11T08:39:50.660Z,16.17
2023-04-11T08:40:54.952Z,16.18
2023-04-11T08:41:57.836Z,16.19
2023-04-11T08:43:01.539Z,16.18
2023-04-11T08:44:04.532Z,16.13
2023-04-11T08:45:09.516Z,16.07
2023-04-11T08:46:13.860Z,16.09
2023-04-11T08:47:16.856Z,16.12
2023-04-11T08:48:22.052Z,16.18
2023-04-11T08:49:25.104Z,16.20
2023-04-11T08:50:28.050Z,16.25
2023-04-11T08:51:31.610Z,16.31
2023-04-11T08:52:35.647Z,16.38
2023-04-11T08:53:39.969Z,16.46
2023-04-11T08:54:42.864Z,16.45
2023-04-11T08:55:47.082Z,16.43
2023-04-11T08:56:50.005Z,16.43
2023-04-11T08:57:53.940Z,16.44
2023-04-11T08:58:57.179Z,16.48
2023-04-11T09:00:08.461Z,16.51
2023-04-11T09:01:40.858Z,16.49
2023-04-11T09:02:59.352Z,16.52
2023-04-11T09:04:05.564Z,16.55
2023-04-11T09:05:24.864Z,16.55
2023-04-11T09:06:30.975Z,16.52
2023-04-11T09:07:50.195Z,16.57
2023-04-11T09:08:53.025Z,16.60
2023-04-11T09:09:55.925Z,16.60
2023-04-11T09:11:01.435Z,16.68
2023-04-11T09:12:04.572Z,16.82
2023-04-11T09:13:20.669Z,16.87
2023-04-11T09:14:27.129Z,16.96
2023-04-11T09:15:31.905Z,17.03
2023-04-11T09:16:37.276Z,17.05
2023-04-11T09:17:43.277Z,17.05
2023-04-11T09:18:47.153Z,17.06
2023-04-11T09:19:50.160Z,17.09
2023-04-11T09:21:01.315Z,17.19
2023-04-11T09:22:07.373Z,17.35
2023-04-11T09:23:24.296Z,17.52
2023-04-11T09:24:33.956Z,17.57
2023-04-11T09:25:44.648Z,17.58
2023-04-11T09:26:47.623Z,17.57
2023-04-11T09:28:06.806Z,17.64
2023-04-11T09:29:09.673Z,17.82
2023-04-11T09:30:24.039Z,17.96
2023-04-11T09:31:44.319Z,18.08
2023-04-11T09:32:49.154Z,18.14
2023-04-11T09:33:54.665Z,18.18
2023-04-11T09:35:11.979Z,18.23
2023-04-11T09:36:22.885Z,18.31
2023-04-11T09:37:26.105Z,18.39
2023-04-11T09:38:34.676Z,18.45
2023-04-11T09:39:37.691Z,18.55
2023-04-11T09:40:44.375Z,18.62
2023-04-11T09:41:47.557Z,18.59
2023-04-11T09:42:58.368Z,18.56
2023-04-11T09:44:01.941Z,18.50
2023-04-11T09:45:05.339Z,18.47
2023-04-11T09:46:09.949Z,18.51
2023-04-11T09:47:13.692Z,18.63
2023-04-11T09:48:17.846Z,18.68
2023-04-11T09:49:20.862Z,18.64
2023-04-11T09:50:25.777Z,18.60
2023-04-11T09:52:58.906Z,18.42
2023-04-11T09:53:40.559Z,18.54
2023-04-11T09:54:03.718Z,18.37
2023-04-11T09:55:08.500Z,18.36
2023-04-11T09:56:12.212Z,18.28
2023-04-11T09:57:16.011Z,18.18
2023-04-11T09:58:21.498Z,18.25
2023-04-11T09:59:26.356Z,18.38
2023-04-11T10:00:32.604Z,18.45
2023-04-11T10:01:37.434Z,18.46
2023-04-11T10:02:41.838Z,18.47
2023-04-11T10:03:47.434Z,18.54
2023-04-11T10:04:51.625Z,18.65
2023-04-11T10:05:55.965Z,18.75
2023-04-11T10:07:08.034Z,18.74
2023-04-11T10:08:13.694Z,18.74
2023-04-11T10:09:17.103Z,18.70
2023-04-11T10:10:22.090Z,18.68
2023-04-11T10:11:25.093Z,18.71
2023-04-11T10:12:32.169Z,18.73
2023-04-11T10:13:34.986Z,18.82
2023-04-11T10:14:37.931Z,18.89
2023-04-11T10:16:10.254Z,18.88
2023-04-11T10:17:24.009Z,18.87
2023-04-11T10:18:27.414Z,18.89
2023-04-11T10:19:30.274Z,18.93
2023-04-11T10:20:37.907Z,18.98
2023-04-11T10:21:42.801Z,19.04
2023-04-11T10:22:51.559Z,19.06
2023-04-11T10:24:15.856Z,19.07
2023-04-11T10:25:27.083Z,19.11
2023-04-11T10:26:56.277Z,19.10
2023-04-11T10:28:02.404Z,19.05
2023-04-11T10:29:28.200Z,18.94
2023-04-11T10:30:40.413Z,18.80
2023-04-11T10:32:12.864Z,18.71
2023-04-11T10:33:17.836Z,18.66
2023-04-11T10:34:21.182Z,18.66
2023-04-11T10:35:24.175Z,18.72
2023-04-11T10:36:27.084Z,18.83
2023-04-11T10:37:38.669Z,18.93
2023-04-11T10:38:44.437Z,18.94
2023-04-11T10:39:51.001Z,19.05
2023-04-11T10:41:34.121Z,19.07
2023-04-11T10:42:40.438Z,19.09
2023-04-11T10:43:43.544Z,19.10
2023-04-11T10:45:25.617Z,19.11
2023-04-11T10:46:28.498Z,19.08
2023-04-11T10:47:31.702Z,19.10
2023-04-11T10:48:58.440Z,19.13
2023-04-11T10:50:01.345Z,19.19
2023-04-11T10:51:23.469Z,19.28
2023-04-11T10:52:27.287Z,19.36
2023-04-11T10:53:36.458Z,19.47
2023-04-11T10:54:39.428Z,19.61
2023-04-11T10:55:50.734Z,19.67
2023-04-11T10:56:55.119Z,19.59
2023-04-11T10:58:04.440Z,19.50
2023-04-11T10:59:07.408Z,19.41
2023-04-11T11:00:13.239Z,19.35
2023-04-11T11:01:31.278Z,19.27
2023-04-11T11:02:41.473Z,19.20
2023-04-11T11:03:53.142Z,19.12
2023-04-11T11:04:56.447Z,19.04
2023-04-11T11:06:07.864Z,19.01
2023-04-11T11:07:15.747Z,18.94
2023-04-11T11:08:30.894Z,18.90
2023-04-11T11:09:34.977Z,18.85
2023-04-11T11:10:49.764Z,18.77
2023-04-11T11:12:13.206Z,18.68
2023-04-11T11:13:17.380Z,18.67
2023-04-11T11:14:30.504Z,18.64
2023-04-11T11:15:37.731Z,18.57
2023-04-11T11:16:46.425Z,18.49
2023-04-11T11:17:49.407Z,18.55
2023-04-11T11:18:56.713Z,18.58
2023-04-11T11:19:59.641Z,18.62
2023-04-11T11:21:02.711Z,18.67
2023-04-11T11:22:14.959Z,18.69
2023-04-11T11:23:17.858Z,18.69
2023-04-11T11:24:27.080Z,18.72
2023-04-11T11:25:30.760Z,18.78
2023-04-11T11:26:40.948Z,18.84
2023-04-11T11:27:43.870Z,18.86
2023-04-11T11:28:48.328Z,18.89
2023-04-11T11:29:52.077Z,18.90
2023-04-11T11:30:57.109Z,18.88
2023-04-11T11:32:01.107Z,18.92
2023-04-11T11:33:20.400Z,19.02
2023-04-11T11:34:34.297Z,19.12
2023-04-11T11:35:37.144Z,19.18
2023-04-11T11:36:42.437Z,19.22
2023-04-11T11:37:45.472Z,19.25
2023-04-11T11:38:48.375Z,19.31
2023-04-11T11:39:51.825Z,19.36
2023-04-11T11:40:55.912Z,19.35
2023-04-11T11:41:59.095Z,19.33
2023-04-11T11:43:02.034Z,19.27
2023-04-11T11:44:06.623Z,19.24
2023-04-11T11:45:22.490Z,19.29
2023-04-11T11:46:25.783Z,19.36
2023-04-11T11:47:28.920Z,19.44
2023-04-11T11:48:32.085Z,19.47
2023-04-11T11:49:48.446Z,19.48
2023-04-11T11:50:58.457Z,19.39
2023-04-11T11:52:02.212Z,19.28
2023-04-11T11:53:14.224Z,19.24
2023-04-11T11:54:17.223Z,19.29
2023-04-11T11:55:22.808Z,19.38
2023-04-11T11:56:27.065Z,19.44
2023-04-11T11:57:30.020Z,19.49
2023-04-11T11:58:43.177Z,19.54
2023-04-11T11:59:53.257Z,19.52
2023-04-11T12:00:56.287Z,19.56
2023-04-11T12:01:59.203Z,19.66
2023-04-11T12:03:02.969Z,19.73
2023-04-11T12:04:07.683Z,19.79
2023-04-11T12:05:11.827Z,19.78
2023-04-11T12:06:16.215Z,19.76
2023-04-11T12:07:22.932Z,19.75
2023-04-11T12:08:25.914Z,19.63
2023-04-11T12:09:33.594Z,19.45
2023-04-11T12:10:46.456Z,19.22
2023-04-11T12:11:49.572Z,19.03
2023-04-11T12:14:25.247Z,18.70
2023-04-11T12:15:28.146Z,18.57
2023-04-11T12:16:31.125Z,18.50
2023-04-11T12:17:36.948Z,18.44
2023-04-11T12:18:42.296Z,18.33
2023-04-11T12:19:45.248Z,18.22
2023-04-11T12:20:48.243Z,18.12
2023-04-11T12:21:51.731Z,18.05
2023-04-11T12:22:55.443Z,18.01
2023-04-11T12:23:58.717Z,17.98
2023-04-11T12:25:09.862Z,17.96
2023-04-11T12:26:13.699Z,17.94
2023-04-11T12:27:17.065Z,17.90
2023-04-11T12:28:20.014Z,17.87
2023-04-11T12:29:24.387Z,17.84
2023-04-11T12:30:30.124Z,17.82
2023-04-11T12:31:33.221Z,17.81
2023-04-11T12:32:36.359Z,17.81
2023-04-11T12:33:39.372Z,17.80
2023-04-11T12:34:42.231Z,17.79
2023-04-11T12:35:46.019Z,17.80
2023-04-11T12:36:48.841Z,17.82
2023-04-11T12:37:52.515Z,17.84
2023-04-11T12:38:55.692Z,17.86
2023-04-11T12:39:58.742Z,17.88
2023-04-11T12:41:26.261Z,17.90
2023-04-11T12:42:27.182Z,17.95
2023-04-11T12:43:30.574Z,18.07
2023-04-11T12:44:33.448Z,18.15
2023-04-11T12:45:36.382Z,18.16
2023-04-11T12:46:39.583Z,18.13
2023-04-11T12:47:43.078Z,18.08
2023-04-11T12:48:45.982Z,18.05
2023-04-11T12:49:48.858Z,18.01
2023-04-11T12:50:51.717Z,17.96
2023-04-11T12:51:55.010Z,17.90
2023-04-11T12:52:57.944Z,17.91
2023-04-11T12:54:00.986Z,17.98
2023-04-11T12:55:04.546Z,18.11
2023-04-11T12:56:08.001Z,18.26
2023-04-11T12:57:12.496Z,18.35
2023-04-11T12:58:15.877Z,18.40
2023-04-11T12:59:18.933Z,18.39
2023-04-11T13:00:22.000Z,18.36
2023-04-11T13:01:25.368Z,18.33
2023-04-11T13:02:31.232Z,18.30
2023-04-11T13:03:38.535Z,18.31
2023-04-11T13:04:42.239Z,18.35
2023-04-11T13:05:45.447Z,18.35
2023-04-11T13:06:48.322Z,18.35
2023-04-11T13:07:52.153Z,18.35
2023-04-11T13:08:56.736Z,18.34
2023-04-11T13:09:59.923Z,18.31
2023-04-11T13:11:02.823Z,18.27
2023-04-11T13:12:05.868Z,18.27
2023-04-11T13:13:18.022Z,18.32
2023-04-11T13:14:21.759Z,18.41
2023-04-11T13:15:24.696Z,18.50
2023-04-11T13:16:27.593Z,18.57
2023-04-11T13:17:30.454Z,18.63
2023-04-11T13:18:33.323Z,18.66
2023-04-11T13:19:36.236Z,18.67
2023-04-11T13:20:39.531Z,18.65
2023-04-11T13:21:42.463Z,18.62
2023-04-11T13:22:45.532Z,18.57
2023-04-11T13:23:48.743Z,18.50
2023-04-11T13:24:51.605Z,18.42
2023-04-11T13:25:54.473Z,18.38
2023-04-11T13:26:57.432Z,18.36
2023-04-11T13:28:01.045Z,18.33
2023-04-11T13:29:04.106Z,18.28
2023-04-11T13:30:08.303Z,18.19
2023-04-11T13:31:11.502Z,18.09
2023-04-11T13:32:14.396Z,18.01
2023-04-11T13:33:17.215Z,17.97
2023-04-11T13:34:20.321Z,17.95
2023-04-11T13:35:24.776Z,17.90
2023-04-11T13:36:29.325Z,17.85
2023-04-11T13:37:32.530Z,17.77
2023-04-11T13:38:35.383Z,17.71
2023-04-11T13:39:38.257Z,17.68
2023-04-11T13:40:42.778Z,17.69
2023-04-11T13:41:45.867Z,17.73
2023-04-11T13:42:48.695Z,17.76
2023-04-11T13:43:52.263Z,17.81
2023-04-11T13:44:55.103Z,17.89
2023-04-11T13:45:58.021Z,17.93
2023-04-11T13:47:02.834Z,17.91
2023-04-11T13:48:05.946Z,17.90
2023-04-11T13:49:08.855Z,17.86
2023-04-11T13:50:11.843Z,17.80
2023-04-11T13:51:14.783Z,17.73
2023-04-11T13:52:17.799Z,17.64
2023-04-11T13:53:20.634Z,17.54
2023-04-11T13:54:23.493Z,17.46
2023-04-11T13:55:26.316Z,17.39
2023-04-11T13:56:29.791Z,17.34
2023-04-11T13:57:32.686Z,17.30
2023-04-11T13:58:35.636Z,17.24
2023-04-11T13:59:38.565Z,17.18
2023-04-11T14:00:41.430Z,17.13
2023-04-11T14:01:44.420Z,17.09
2023-04-11T14:02:48.341Z,17.05
2023-04-11T14:03:53.489Z,17.05
2023-04-11T14:04:56.640Z,17.05
2023-04-11T14:06:00.614Z,17.05
2023-04-11T14:07:03.501Z,17.04
2023-04-11T14:08:07.334Z,17.04
2023-04-11T14:09:10.396Z,17.05
2023-04-11T14:10:13.254Z,17.05
2023-04-11T14:11:16.116Z,17.04